Time;durP1;ratioP1;P1;durP2;ratioP2;P2;SDS_P1;SDS_P2;PMS_P1;PMS_P2;Temp;Humidity;BMP_temperature;BMP_pressure;BME280_temperature;BME280_humidity;BME280_pressure;Samples;Min_cycle;Max_cycle;Signal;HPM_P1;HPM_P2
2022/04/08 00:02:14;;;;;;;5.65;1.00;;;;;;;;;;5086456;28;20043;-67
2022/04/08 00:04:40;;;;;;;4.60;1.73;;;;;;;;;;5085165;28;20024;-67
2022/04/08 00:07:06;;;;;;;9.88;1.50;;;;;;;;;;5081151;28;20473;-68
2022/04/08 00:09:32;;;;;;;6.25;1.40;;;;;;;;;;5080462;28;20089;-68
2022/04/08 00:11:58;;;;;;;5.55;1.17;;;;;;;;;;5084239;28;20020;-68
2022/04/08 00:14:24;;;;;;;11.13;1.60;;;;;;;;;;5078652;28;20024;-68
2022/04/08 00:16:50;;;;;;;7.82;1.40;;;;;;;;;;5084029;28;20116;-68
2022/04/08 00:19:17;;;;;;;14.60;1.65;;;;;;;;;;5084116;28;20462;-68
2022/04/08 00:21:43;;;;;;;7.38;1.42;;;;;;;;;;5084169;28;20020;-68
2022/04/08 00:24:09;;;;;;;8.93;1.95;;;;;;;;;;5084337;28;20043;-68
2022/04/08 00:26:35;;;;;;;15.98;1.98;;;;;;;;;;5084406;28;20020;-68
2022/04/08 00:29:01;;;;;;;10.73;1.40;;;;;;;;;;5079138;28;20042;-68
2022/04/08 00:31:27;;;;;;;5.00;0.90;;;;;;;;;;5088673;28;20078;-68
2022/04/08 00:33:53;;;;;;;12.10;1.98;;;;;;;;;;5072581;28;20047;-68
2022/04/08 00:36:19;;;;;;;7.05;1.30;;;;;;;;;;5083977;28;20024;-68
2022/04/08 00:38:45;;;;;;;19.80;1.95;;;;;;;;;;5080050;28;20028;-67
2022/04/08 00:41:12;;;;;;;8.48;1.60;;;;;;;;;;5082766;28;20028;-68
2022/04/08 00:43:39;;;;;;;10.88;2.22;;;;;;;;;;5062575;28;20024;-68
2022/04/08 00:46:06;;;;;;;7.10;1.63;;;;;;;;;;5087976;28;20063;-68
2022/04/08 00:48:33;;;;;;;1.65;1.08;;;;;;;;;;5077549;28;20481;-68
2022/04/08 00:51:00;;;;;;;7.15;1.10;;;;;;;;;;5084312;28;20032;-68
2022/04/08 00:53:26;;;;;;;8.70;1.77;;;;;;;;;;5079202;28;20029;-68
2022/04/08 00:55:52;;;;;;;5.95;1.55;;;;;;;;;;5084833;28;20024;-68
2022/04/08 00:58:18;;;;;;;6.85;1.45;;;;;;;;;;5082236;28;20055;-68
2022/04/08 01:00:45;;;;;;;5.45;1.05;;;;;;;;;;5081388;28;20028;-68
2022/04/08 01:03:11;;;;;;;6.60;1.52;;;;;;;;;;5087172;28;20457;-68
2022/04/08 01:05:37;;;;;;;6.97;1.30;;;;;;;;;;5089411;28;20476;-68
2022/04/08 01:08:04;;;;;;;4.93;1.25;;;;;;;;;;5079524;28;20032;-68
2022/04/08 01:10:30;;;;;;;2.83;1.45;;;;;;;;;;5079952;28;20071;-68
2022/04/08 01:12:56;;;;;;;4.45;1.15;;;;;;;;;;5079104;28;20121;-69
2022/04/08 01:15:25;;;;;;;8.48;1.05;;;;;;;;;;5075976;28;20142;-68
2022/04/08 01:17:51;;;;;;;3.53;1.00;;;;;;;;;;5083752;28;20063;-68
2022/04/08 01:20:17;;;;;;;4.43;1.02;;;;;;;;;;5083316;28;20137;-68
2022/04/08 01:22:43;;;;;;;4.80;1.08;;;;;;;;;;5078977;28;20029;-68
2022/04/08 01:25:10;;;;;;;6.03;1.10;;;;;;;;;;5083652;28;20021;-68
2022/04/08 01:27:36;;;;;;;5.20;1.10;;;;;;;;;;5083630;28;20448;-68
2022/04/08 01:30:04;;;;;;;5.47;1.42;;;;;;;;;;5075234;28;20036;-68
2022/04/08 01:32:31;;;;;;;7.18;1.50;;;;;;;;;;5090516;28;20024;-68
2022/04/08 01:34:57;;;;;;;3.13;0.90;;;;;;;;;;5079508;28;20112;-68
2022/04/08 01:37:23;;;;;;;2.53;0.82;;;;;;;;;;5082375;28;20020;-68
2022/04/08 01:39:49;;;;;;;5.22;1.27;;;;;;;;;;5094263;28;20434;-68
2022/04/08 01:42:16;;;;;;;4.82;1.30;;;;;;;;;;5084679;28;20020;-68
2022/04/08 01:44:44;;;;;;;4.88;1.02;;;;;;;;;;5076610;28;20054;-68
2022/04/08 01:47:10;;;;;;;8.38;0.90;;;;;;;;;;5090588;28;20035;-68
2022/04/08 01:49:36;;;;;;;6.68;1.08;;;;;;;;;;5074955;28;20040;-68
2022/04/08 01:52:02;;;;;;;5.13;1.17;;;;;;;;;;5082096;28;20039;-68
2022/04/08 01:54:28;;;;;;;5.78;1.30;;;;;;;;;;5077994;28;20024;-68
2022/04/08 01:56:54;;;;;;;4.07;0.90;;;;;;;;;;5078489;28;20091;-68
2022/04/08 01:59:21;;;;;;;4.97;1.23;;;;;;;;;;5082828;28;20023;-68
2022/04/08 02:01:47;;;;;;;4.32;1.33;;;;;;;;;;5083612;28;20032;-68
2022/04/08 02:04:13;;;;;;;3.47;0.93;;;;;;;;;;5074205;28;20024;-68
2022/04/08 02:06:40;;;;;;;4.78;0.95;;;;;;;;;;5082948;28;20073;-68
2022/04/08 02:09:11;;;;;;;5.30;1.30;;;;;;;;;;5081185;28;20788;-68
2022/04/08 02:11:38;;;;;;;6.75;0.98;;;;;;;;;;5077599;28;20056;-69
2022/04/08 02:14:04;;;;;;;4.25;1.13;;;;;;;;;;5088058;28;20035;-68
2022/04/08 02:16:30;;;;;;;5.32;0.75;;;;;;;;;;5081604;28;20089;-68
2022/04/08 02:18:57;;;;;;;3.28;1.02;;;;;;;;;;5086661;28;20058;-68
2022/04/08 02:21:23;;;;;;;5.07;1.00;;;;;;;;;;5076917;28;20095;-68
2022/04/08 02:23:50;;;;;;;5.70;0.93;;;;;;;;;;5081878;28;20528;-68
2022/04/08 02:26:16;;;;;;;9.20;1.55;;;;;;;;;;5080416;28;20021;-68
2022/04/08 02:28:43;;;;;;;5.22;0.73;;;;;;;;;;5075603;28;20511;-68
2022/04/08 02:31:09;;;;;;;9.00;0.85;;;;;;;;;;5078235;28;20492;-68
2022/04/08 02:33:35;;;;;;;4.07;0.88;;;;;;;;;;5084608;28;20036;-68
2022/04/08 02:36:01;;;;;;;7.68;0.77;;;;;;;;;;5081859;28;20110;-68
2022/04/08 02:38:27;;;;;;;3.72;1.00;;;;;;;;;;5076173;28;20019;-68
2022/04/08 02:40:53;;;;;;;4.68;1.20;;;;;;;;;;5089028;28;20039;-68
2022/04/08 02:43:19;;;;;;;6.57;1.00;;;;;;;;;;5085773;28;20039;-68
2022/04/08 02:45:45;;;;;;;5.10;1.08;;;;;;;;;;5089989;28;20017;-68
2022/04/08 02:48:14;;;;;;;2.40;1.00;;;;;;;;;;5086909;28;20489;-68
2022/04/08 02:50:41;;;;;;;5.57;1.02;;;;;;;;;;5090327;28;20020;-68
2022/04/08 02:53:07;;;;;;;6.43;0.82;;;;;;;;;;5089307;28;20396;-67
2022/04/08 02:55:35;;;;;;;5.10;1.20;;;;;;;;;;5090243;28;20024;-68
2022/04/08 02:58:01;;;;;;;8.10;2.22;;;;;;;;;;5089822;28;20107;-68
2022/04/08 03:00:27;;;;;;;3.55;0.90;;;;;;;;;;5091276;28;20107;-68
2022/04/08 03:02:53;;;;;;;5.97;1.20;;;;;;;;;;5089164;28;20957;-68
2022/04/08 03:05:19;;;;;;;5.07;1.10;;;;;;;;;;5088984;28;20024;-68
2022/04/08 03:07:45;;;;;;;1.13;0.70;;;;;;;;;;5090088;28;20024;-68
2022/04/08 03:10:11;;;;;;;1.75;0.80;;;;;;;;;;5089992;28;20086;-68
2022/04/08 03:12:38;;;;;;;1.25;0.63;;;;;;;;;;5089433;28;20377;-68
2022/04/08 03:15:04;;;;;;;3.65;0.75;;;;;;;;;;5081577;28;20016;-68
2022/04/08 03:17:30;;;;;;;3.00;0.73;;;;;;;;;;5085276;28;20110;-68
2022/04/08 03:19:57;;;;;;;1.67;0.50;;;;;;;;;;5081173;28;20035;-68
2022/04/08 03:22:24;;;;;;;0.70;0.43;;;;;;;;;;5080907;28;20020;-68
2022/04/08 03:24:54;;;;;;;6.95;0.75;;;;;;;;;;5087170;28;20028;-68
2022/04/08 03:27:20;;;;;;;0.93;0.82;;;;;;;;;;5080548;28;20024;-69
2022/04/08 03:29:48;;;;;;;2.90;0.73;;;;;;;;;;5068994;28;20059;-69
2022/04/08 03:32:14;;;;;;;2.75;0.70;;;;;;;;;;5069917;28;20059;-68
2022/04/08 03:34:40;;;;;;;5.63;0.80;;;;;;;;;;5089683;28;20112;-68
2022/04/08 03:37:06;;;;;;;2.92;0.70;;;;;;;;;;5069236;28;20461;-68
2022/04/08 03:39:32;;;;;;;1.85;0.60;;;;;;;;;;5075900;28;20166;-68
2022/04/08 03:41:58;;;;;;;3.95;0.70;;;;;;;;;;5078321;28;20466;-69
2022/04/08 03:44:24;;;;;;;4.90;1.05;;;;;;;;;;5069011;28;20032;-69
2022/04/08 03:46:50;;;;;;;2.35;0.85;;;;;;;;;;5089814;28;20086;-68
2022/04/08 03:49:17;;;;;;;3.10;0.80;;;;;;;;;;5075333;28;20051;-68
2022/04/08 03:51:44;;;;;;;2.97;0.75;;;;;;;;;;5086702;28;20416;-68
2022/04/08 03:54:10;;;;;;;4.07;0.60;;;;;;;;;;5089769;28;20036;-68
2022/04/08 03:56:37;;;;;;;3.78;0.80;;;;;;;;;;5088199;28;20107;-68
2022/04/08 03:59:03;;;;;;;2.88;0.82;;;;;;;;;;5088278;28;20059;-68
2022/04/08 04:01:29;;;;;;;4.28;0.70;;;;;;;;;;5088597;28;20442;-68
2022/04/08 04:03:55;;;;;;;1.77;0.77;;;;;;;;;;5084047;28;20107;-68
2022/04/08 04:06:21;;;;;;;4.03;0.63;;;;;;;;;;5085362;28;20067;-69
2022/04/08 04:08:47;;;;;;;4.50;0.70;;;;;;;;;;5078806;28;20056;-68
2022/04/08 04:11:15;;;;;;;3.67;0.93;;;;;;;;;;5080409;28;20103;-68
2022/04/08 04:13:44;;;;;;;1.23;0.70;;;;;;;;;;5080056;28;20032;-68
2022/04/08 04:16:10;;;;;;;2.83;1.15;;;;;;;;;;5078415;28;20039;-68
2022/04/08 04:18:37;;;;;;;2.55;0.80;;;;;;;;;;5091894;28;20036;-68
2022/04/08 04:21:03;;;;;;;8.20;1.10;;;;;;;;;;5092779;28;20024;-69
2022/04/08 04:23:31;;;;;;;2.78;0.95;;;;;;;;;;5093125;28;20028;-68
2022/04/08 04:25:57;;;;;;;3.45;0.77;;;;;;;;;;5092662;28;20028;-69
2022/04/08 04:28:23;;;;;;;1.42;1.25;;;;;;;;;;5092391;28;20028;-69
2022/04/08 04:30:53;;;;;;;7.43;1.25;;;;;;;;;;5073251;28;20390;-68
2022/04/08 04:36:11;;;;;;;7.53;1.20;;;;;;;;;;5114496;22;21288;-73
2022/04/08 04:38:37;;;;;;;5.70;1.40;;;;;;;;;;5092404;28;20020;-73
2022/04/08 04:41:03;;;;;;;4.80;1.20;;;;;;;;;;5090813;28;20211;-73
2022/04/08 04:43:29;;;;;;;3.17;1.15;;;;;;;;;;5092086;28;20128;-73
2022/04/08 04:45:55;;;;;;;9.13;1.50;;;;;;;;;;5070427;28;20148;-74
2022/04/08 04:48:22;;;;;;;2.42;0.98;;;;;;;;;;5093307;28;20032;-73
2022/04/08 04:50:49;;;;;;;2.80;1.20;;;;;;;;;;5086599;28;20039;-73
2022/04/08 04:53:15;;;;;;;3.28;1.08;;;;;;;;;;5089920;28;20054;-73
2022/04/08 04:55:41;;;;;;;2.55;0.80;;;;;;;;;;5090305;28;20412;-74
2022/04/08 04:58:07;;;;;;;1.70;0.65;;;;;;;;;;5092299;28;20103;-76
2022/04/08 05:00:33;;;;;;;2.95;1.08;;;;;;;;;;5090815;28;20024;-76
2022/04/08 05:03:01;;;;;;;12.50;1.13;;;;;;;;;;5092154;28;20465;-76
2022/04/08 05:05:27;;;;;;;3.42;1.13;;;;;;;;;;5086907;28;20468;-75
2022/04/08 05:07:53;;;;;;;2.40;0.90;;;;;;;;;;5091703;28;20031;-76
2022/04/08 05:10:19;;;;;;;3.33;0.82;;;;;;;;;;5091633;28;20012;-76
2022/04/08 05:12:46;;;;;;;1.55;0.80;;;;;;;;;;5091418;28;20028;-76
2022/04/08 05:15:13;;;;;;;3.03;0.70;;;;;;;;;;5091547;28;20392;-76
2022/04/08 05:17:39;;;;;;;3.45;1.23;;;;;;;;;;5091771;28;20028;-76
2022/04/08 05:20:06;;;;;;;6.00;0.90;;;;;;;;;;5085863;28;20058;-75
2022/04/08 05:22:32;;;;;;;6.20;1.17;;;;;;;;;;5090082;28;20396;-75
2022/04/08 05:24:59;;;;;;;5.95;0.93;;;;;;;;;;5072393;28;20024;-76
2022/04/08 05:27:26;;;;;;;4.03;1.10;;;;;;;;;;5090939;28;20070;-76
2022/04/08 05:29:52;;;;;;;4.22;0.90;;;;;;;;;;5087415;28;20481;-76
2022/04/08 05:32:18;;;;;;;3.90;0.88;;;;;;;;;;5091194;28;20027;-77
2022/04/08 05:34:44;;;;;;;6.55;1.02;;;;;;;;;;5086937;28;20041;-76
2022/04/08 05:37:12;;;;;;;2.13;0.80;;;;;;;;;;5089193;28;20443;-77
2022/04/08 05:39:38;;;;;;;2.78;1.13;;;;;;;;;;5091088;28;20055;-76
2022/04/08 05:42:05;;;;;;;8.68;1.15;;;;;;;;;;5090610;28;20043;-76
2022/04/08 05:44:31;;;;;;;3.38;0.80;;;;;;;;;;5093600;28;20051;-76
2022/04/08 05:46:57;;;;;;;4.18;1.30;;;;;;;;;;5073119;28;20023;-77
2022/04/08 05:49:23;;;;;;;4.00;0.65;;;;;;;;;;5090685;28;20036;-76
2022/04/08 05:51:49;;;;;;;6.43;0.80;;;;;;;;;;5088556;28;20024;-76
2022/04/08 05:54:15;;;;;;;6.28;1.08;;;;;;;;;;5091182;28;20488;-76
2022/04/08 05:56:41;;;;;;;0.55;0.55;;;;;;;;;;5091142;28;20073;-76
2022/04/08 05:59:07;;;;;;;2.55;0.90;;;;;;;;;;5090887;28;20073;-76
2022/04/08 06:01:33;;;;;;;3.15;0.85;;;;;;;;;;5089524;28;20140;-76
2022/04/08 06:03:59;;;;;;;2.67;1.25;;;;;;;;;;5091216;28;20888;-76
2022/04/08 06:06:25;;;;;;;5.03;1.52;;;;;;;;;;5088840;28;20072;-76
2022/04/08 06:08:51;;;;;;;3.50;1.42;;;;;;;;;;5091118;28;20409;-77
2022/04/08 06:11:17;;;;;;;7.85;1.52;;;;;;;;;;5091082;28;20028;-75
2022/04/08 06:13:43;;;;;;;9.13;2.22;;;;;;;;;;5090754;28;20474;-76
2022/04/08 06:16:09;;;;;;;9.50;1.85;;;;;;;;;;5091447;28;20091;-76
2022/04/08 06:18:35;;;;;;;9.95;2.13;;;;;;;;;;5092230;28;20316;-76
2022/04/08 06:21:01;;;;;;;4.97;1.98;;;;;;;;;;5076278;28;20074;-76
2022/04/08 06:23:27;;;;;;;6.35;1.77;;;;;;;;;;5082938;28;20024;-75
2022/04/08 06:25:53;;;;;;;9.70;1.73;;;;;;;;;;5090317;28;20101;-76
2022/04/08 06:28:19;;;;;;;6.72;1.50;;;;;;;;;;5090123;28;20279;-76
2022/04/08 06:30:45;;;;;;;5.00;1.58;;;;;;;;;;5090425;28;20477;-76
2022/04/08 06:33:11;;;;;;;9.77;1.67;;;;;;;;;;5090384;28;20038;-75
2022/04/08 06:35:38;;;;;;;4.15;1.15;;;;;;;;;;5082368;28;20029;-77
2022/04/08 06:38:07;;;;;;;3.65;1.50;;;;;;;;;;5070223;28;20108;-76
2022/04/08 06:40:38;;;;;;;8.23;1.40;;;;;;;;;;5069681;28;20025;-76
2022/04/08 06:43:05;;;;;;;5.03;1.20;;;;;;;;;;5051526;28;20033;-76
2022/04/08 06:45:31;;;;;;;4.22;1.55;;;;;;;;;;5070844;28;20028;-76
2022/04/08 06:47:57;;;;;;;3.35;1.15;;;;;;;;;;5072126;28;20099;-76
2022/04/08 06:50:23;;;;;;;1.83;0.77;;;;;;;;;;5081392;28;20396;-76
2022/04/08 06:52:49;;;;;;;1.35;0.73;;;;;;;;;;5084258;28;20030;-76
2022/04/08 06:55:15;;;;;;;1.65;0.75;;;;;;;;;;5110451;28;20376;-75
2022/04/08 06:57:42;;;;;;;3.35;0.65;;;;;;;;;;5092059;28;20059;-77
2022/04/08 07:00:09;;;;;;;4.25;0.90;;;;;;;;;;5092051;28;20028;-76
2022/04/08 07:02:36;;;;;;;3.25;0.80;;;;;;;;;;5091353;28;20051;-77
2022/04/08 07:05:02;;;;;;;4.00;1.00;;;;;;;;;;5092004;28;20477;-76
2022/04/08 07:07:28;;;;;;;5.78;1.08;;;;;;;;;;5071186;28;20020;-76
2022/04/08 07:09:56;;;;;;;4.53;1.52;;;;;;;;;;5089949;28;20035;-76
2022/04/08 07:12:23;;;;;;;4.65;0.90;;;;;;;;;;5089869;28;20039;-76
2022/04/08 07:14:49;;;;;;;1.58;0.63;;;;;;;;;;5089347;28;20088;-77
2022/04/08 07:17:15;;;;;;;8.55;0.82;;;;;;;;;;5089119;28;20103;-76
2022/04/08 07:19:41;;;;;;;2.90;0.80;;;;;;;;;;5089908;28;20023;-76
2022/04/08 07:22:07;;;;;;;1.50;0.77;;;;;;;;;;5098927;28;20039;-76
2022/04/08 07:24:33;;;;;;;5.07;0.90;;;;;;;;;;5109794;28;20361;-77
2022/04/08 07:27:00;;;;;;;3.72;1.15;;;;;;;;;;5110046;28;20047;-76
2022/04/08 07:29:27;;;;;;;1.52;0.82;;;;;;;;;;5091224;28;20450;-76
2022/04/08 07:31:53;;;;;;;1.55;0.80;;;;;;;;;;5108629;28;20055;-76
2022/04/08 07:34:19;;;;;;;3.90;0.90;;;;;;;;;;5109618;28;20069;-76
2022/04/08 07:36:45;;;;;;;1.38;0.93;;;;;;;;;;5067245;28;20465;-75
2022/04/08 07:39:10;;;;;;;3.53;1.00;;;;;;;;;;5068948;28;20032;-76
2022/04/08 07:41:36;;;;;;;2.00;0.90;;;;;;;;;;5068724;28;20447;-76
2022/04/08 07:44:04;;;;;;;4.22;1.42;;;;;;;;;;5051046;28;20021;-76
2022/04/08 07:46:30;;;;;;;2.33;1.10;;;;;;;;;;5059659;28;20474;-76
2022/04/08 07:48:56;;;;;;;4.15;1.13;;;;;;;;;;5051155;28;20029;-77
2022/04/08 07:51:22;;;;;;;4.72;0.90;;;;;;;;;;5059118;28;20031;-76
2022/04/08 07:53:48;;;;;;;1.73;0.90;;;;;;;;;;5093899;28;20035;-76
2022/04/08 07:56:14;;;;;;;3.90;1.27;;;;;;;;;;5092346;28;20020;-76
2022/04/08 07:58:45;;;;;;;3.80;0.85;;;;;;;;;;5091141;28;20024;-76
2022/04/08 08:01:11;;;;;;;3.20;1.00;;;;;;;;;;5092503;28;20269;-76
2022/04/08 08:03:37;;;;;;;0.85;0.65;;;;;;;;;;5093612;28;20401;-76
2022/04/08 08:06:04;;;;;;;1.20;0.60;;;;;;;;;;5070679;28;20087;-76
2022/04/08 08:08:30;;;;;;;1.52;0.57;;;;;;;;;;5055156;28;20134;-76
2022/04/08 08:10:56;;;;;;;1.27;0.60;;;;;;;;;;5073249;28;20024;-78
2022/04/08 08:13:22;;;;;;;3.13;0.65;;;;;;;;;;5073097;28;20024;-76
2022/04/08 08:15:48;;;;;;;2.35;0.73;;;;;;;;;;5072542;28;20020;-76
2022/04/08 08:18:14;;;;;;;1.52;0.80;;;;;;;;;;5072992;28;20025;-76
2022/04/08 08:20:40;;;;;;;3.90;0.80;;;;;;;;;;5072628;28;20043;-76
2022/04/08 08:23:06;;;;;;;0.63;0.63;;;;;;;;;;5071383;28;20107;-76
2022/04/08 08:25:33;;;;;;;4.65;0.80;;;;;;;;;;5072634;28;20481;-76
2022/04/08 08:28:01;;;;;;;1.17;0.70;;;;;;;;;;5071435;28;20027;-76
2022/04/08 08:30:29;;;;;;;2.70;0.90;;;;;;;;;;5071846;28;20025;-76
2022/04/08 08:32:55;;;;;;;4.28;1.05;;;;;;;;;;5060733;28;20024;-76
2022/04/08 08:35:21;;;;;;;2.15;1.02;;;;;;;;;;5082769;28;20387;-76
2022/04/08 08:37:48;;;;;;;2.30;0.85;;;;;;;;;;5075139;28;20032;-76
2022/04/08 08:40:15;;;;;;;7.30;1.10;;;;;;;;;;5071982;28;20016;-77
2022/04/08 08:42:42;;;;;;;2.65;0.90;;;;;;;;;;5071613;28;20454;-76
2022/04/08 08:45:09;;;;;;;3.38;1.30;;;;;;;;;;5054337;28;20086;-76
2022/04/08 08:47:35;;;;;;;3.15;0.90;;;;;;;;;;5090580;28;20027;-76
2022/04/08 08:50:01;;;;;;;2.08;1.13;;;;;;;;;;5092262;28;20028;-76
2022/04/08 08:52:28;;;;;;;2.58;1.20;;;;;;;;;;5061153;28;20035;-76
2022/04/08 08:54:54;;;;;;;7.57;1.40;;;;;;;;;;5072588;28;20021;-76
2022/04/08 08:57:21;;;;;;;2.50;1.13;;;;;;;;;;5053744;28;20035;-76
2022/04/08 08:59:48;;;;;;;6.13;0.93;;;;;;;;;;5080101;28;20240;-76
2022/04/08 09:02:21;;;;;;;2.42;1.38;;;;;;;;;;5110925;28;20384;-77
2022/04/08 09:04:47;;;;;;;2.55;1.02;;;;;;;;;;5094158;28;20548;-76
2022/04/08 09:07:26;;;;;;;3.35;1.02;;;;;;;;;;5095235;28;20499;-76
2022/04/08 09:09:53;;;;;;;2.72;1.10;;;;;;;;;;5099609;28;20055;-76
2022/04/08 09:12:19;;;;;;;5.80;1.10;;;;;;;;;;5091926;28;20024;-76
2022/04/08 09:14:51;;;;;;;3.40;1.23;;;;;;;;;;5091881;28;20077;-76
2022/04/08 09:17:18;;;;;;;5.45;1.27;;;;;;;;;;5091563;28;20039;-76
2022/04/08 09:20:04;;;;;;;2.92;1.35;;;;;;;;;;5092132;28;20058;-76
2022/04/08 09:22:36;;;;;;;6.85;1.50;;;;;;;;;;5079914;28;20035;-76
2022/04/08 09:25:10;;;;;;;5.15;1.48;;;;;;;;;;5071551;28;20158;-76
2022/04/08 09:27:36;;;;;;;4.82;1.77;;;;;;;;;;5071404;28;20527;-76
2022/04/08 09:30:02;;;;;;;4.35;1.58;;;;;;;;;;5053053;28;20066;-76
2022/04/08 09:32:28;;;;;;;3.40;1.25;;;;;;;;;;5070411;28;20122;-76
2022/04/08 09:34:55;;;;;;;5.47;1.70;;;;;;;;;;5052664;28;20386;-76
2022/04/08 09:37:21;;;;;;;5.93;1.63;;;;;;;;;;5079962;28;20145;-75
2022/04/08 09:40:07;;;;;;;5.10;2.00;;;;;;;;;;5072728;28;20516;-75
2022/04/08 09:42:43;;;;;;;7.43;2.20;;;;;;;;;;5070936;28;20012;-76
2022/04/08 09:45:10;;;;;;;7.60;3.00;;;;;;;;;;5098488;28;20020;-76
2022/04/08 09:47:36;;;;;;;7.60;2.58;;;;;;;;;;5090773;28;20130;-76
2022/04/08 09:50:03;;;;;;;7.68;2.55;;;;;;;;;;5090861;28;20040;-76
2022/04/08 09:52:29;;;;;;;10.70;2.90;;;;;;;;;;5088934;28;20028;-76
2022/04/08 09:54:57;;;;;;;9.38;2.33;;;;;;;;;;5091066;28;20035;-76
2022/04/08 09:57:23;;;;;;;11.55;2.45;;;;;;;;;;5072893;28;20165;-76
2022/04/08 09:59:55;;;;;;;7.65;2.25;;;;;;;;;;5090225;28;20473;-75
2022/04/08 10:02:23;;;;;;;7.75;2.28;;;;;;;;;;5090304;28;20028;-76
2022/04/08 10:04:49;;;;;;;3.53;1.58;;;;;;;;;;5090619;28;20129;-76
2022/04/08 10:07:16;;;;;;;6.90;1.60;;;;;;;;;;5085264;28;20033;-75
2022/04/08 10:10:01;;;;;;;20.77;8.35;;;;;;;;;;5069942;28;20111;-75
2022/04/08 10:12:39;;;;;;;53.05;16.38;;;;;;;;;;5069482;28;20029;-76
2022/04/08 10:15:11;;;;;;;4.55;2.00;;;;;;;;;;5069923;28;20021;-75
2022/04/08 10:17:37;;;;;;;3.25;1.30;;;;;;;;;;5090038;28;20155;-77
2022/04/08 10:20:21;;;;;;;4.32;1.25;;;;;;;;;;5104673;28;20062;-76
2022/04/08 10:23:03;;;;;;;3.17;1.45;;;;;;;;;;5113294;28;20384;-76
2022/04/08 10:25:35;;;;;;;3.08;1.52;;;;;;;;;;5113311;28;20436;-77
2022/04/08 10:28:01;;;;;;;5.15;1.60;;;;;;;;;;5110924;28;20031;-76
2022/04/08 10:30:26;;;;;;;3.70;1.60;;;;;;;;;;5111100;28;20146;-76
2022/04/08 10:32:59;;;;;;;6.15;1.92;;;;;;;;;;5110703;28;20042;-76
2022/04/08 10:35:25;;;;;;;5.00;1.48;;;;;;;;;;5110278;28;20130;-76
2022/04/08 10:44:07;;;;;;;2.00;1.50;;;;;;;;;;5072715;28;20035;-70
2022/04/08 10:46:33;;;;;;;4.63;1.63;;;;;;;;;;5071779;28;20508;-71
2022/04/08 10:48:59;;;;;;;2.03;1.67;;;;;;;;;;5071443;28;20025;-71
2022/04/08 10:51:32;;;;;;;2.97;1.45;;;;;;;;;;5071645;28;20025;-70
2022/04/08 10:54:05;;;;;;;3.47;1.40;;;;;;;;;;5067725;28;20027;-71
2022/04/08 10:56:34;;;;;;;1.92;1.33;;;;;;;;;;5070016;28;20146;-70
2022/04/08 10:59:01;;;;;;;5.47;1.43;;;;;;;;;;5070147;28;20032;-70
2022/04/08 11:01:27;;;;;;;3.05;1.50;;;;;;;;;;5069221;28;20048;-70
2022/04/08 11:03:59;;;;;;;1.90;1.20;;;;;;;;;;5069818;28;20389;-71
2022/04/08 11:06:25;;;;;;;9.45;2.40;;;;;;;;;;5069782;28;20048;-70
2022/04/08 11:08:51;;;;;;;4.13;1.88;;;;;;;;;;5068691;28;20113;-71
2022/04/08 11:11:27;;;;;;;2.70;1.50;;;;;;;;;;5069279;28;20037;-70
2022/04/08 11:13:57;;;;;;;4.28;1.95;;;;;;;;;;5052342;28;20115;-71
2022/04/08 11:16:23;;;;;;;3.72;2.35;;;;;;;;;;5069782;28;20077;-71
2022/04/08 11:18:49;;;;;;;4.50;2.13;;;;;;;;;;5051227;28;20028;-71
2022/04/08 11:21:19;;;;;;;5.53;2.25;;;;;;;;;;5069391;28;20492;-71
2022/04/08 11:23:56;;;;;;;2.08;1.70;;;;;;;;;;5068686;28;20070;-70
2022/04/08 11:26:22;;;;;;;3.33;1.63;;;;;;;;;;5063064;28;20028;-70
2022/04/08 11:28:48;;;;;;;3.88;2.05;;;;;;;;;;5049375;28;20025;-71
2022/04/08 11:31:17;;;;;;;4.25;2.08;;;;;;;;;;5048496;28;20385;-71
2022/04/08 11:33:43;;;;;;;5.40;2.25;;;;;;;;;;5049263;28;20048;-70
2022/04/08 11:36:09;;;;;;;2.85;2.10;;;;;;;;;;5048768;28;20174;-71
2022/04/08 11:38:35;;;;;;;4.03;2.30;;;;;;;;;;5067688;28;20016;-70
2022/04/08 11:41:02;;;;;;;3.80;1.98;;;;;;;;;;5069756;28;20047;-71
2022/04/08 11:43:28;;;;;;;4.10;2.15;;;;;;;;;;5069245;28;20313;-71
2022/04/08 11:45:54;;;;;;;4.72;2.50;;;;;;;;;;5069049;28;20109;-71
2022/04/08 11:48:21;;;;;;;4.72;2.30;;;;;;;;;;5069429;28;20048;-71
2022/04/08 11:50:48;;;;;;;5.05;2.33;;;;;;;;;;5069545;28;20028;-70
2022/04/08 11:53:15;;;;;;;4.00;1.92;;;;;;;;;;5067879;28;20037;-70
2022/04/08 11:55:51;;;;;;;2.80;1.58;;;;;;;;;;5069340;28;20044;-71
2022/04/08 11:58:18;;;;;;;5.50;1.70;;;;;;;;;;5069343;28;20032;-71
2022/04/08 12:00:46;;;;;;;3.47;1.38;;;;;;;;;;5067257;28;20104;-71
2022/04/08 12:03:17;;;;;;;6.97;2.05;;;;;;;;;;5068294;28;20039;-71
2022/04/08 12:05:47;;;;;;;1.33;1.20;;;;;;;;;;5068979;28;20539;-71
2022/04/08 12:08:13;;;;;;;1.50;1.38;;;;;;;;;;5065235;28;20028;-71
2022/04/08 12:10:40;;;;;;;6.95;1.63;;;;;;;;;;5048454;28;20496;-70
2022/04/08 12:13:12;;;;;;;1.55;0.70;;;;;;;;;;5048703;28;20033;-71
2022/04/08 12:15:43;;;;;;;1.23;0.85;;;;;;;;;;5049058;28;20401;-71
2022/04/08 12:18:09;;;;;;;1.33;0.85;;;;;;;;;;5047446;28;20220;-71
2022/04/08 12:20:38;;;;;;;2.33;0.70;;;;;;;;;;5049299;28;20060;-71
2022/04/08 12:23:05;;;;;;;0.40;0.40;;;;;;;;;;5047914;28;20061;-71
2022/04/08 12:25:32;;;;;;;0.65;0.63;;;;;;;;;;5089207;28;20020;-71
2022/04/08 12:27:59;;;;;;;0.60;0.60;;;;;;;;;;5088908;28;20112;-71
2022/04/08 12:30:30;;;;;;;0.50;0.50;;;;;;;;;;5089073;28;20058;-71
2022/04/08 12:32:57;;;;;;;0.80;0.65;;;;;;;;;;5088908;28;20021;-70
2022/04/08 12:35:23;;;;;;;0.70;0.70;;;;;;;;;;5083233;28;20068;-71
2022/04/08 12:37:49;;;;;;;3.63;1.17;;;;;;;;;;5070068;28;20024;-71
2022/04/08 12:40:15;;;;;;;0.40;0.40;;;;;;;;;;5051059;28;20049;-71
2022/04/08 12:42:41;;;;;;;0.77;0.63;;;;;;;;;;5051884;28;20039;-71
2022/04/08 12:45:07;;;;;;;1.08;0.80;;;;;;;;;;5052475;28;20025;-71
2022/04/08 12:47:33;;;;;;;0.35;0.35;;;;;;;;;;5070283;28;20419;-71
2022/04/08 12:50:00;;;;;;;0.80;0.60;;;;;;;;;;5071881;28;20086;-71
2022/04/08 12:52:26;;;;;;;0.50;0.40;;;;;;;;;;5072649;28;20107;-71
2022/04/08 12:54:54;;;;;;;0.85;0.47;;;;;;;;;;5069996;28;20032;-71
2022/04/08 12:57:20;;;;;;;0.85;0.70;;;;;;;;;;5072533;28;20289;-71
2022/04/08 12:59:47;;;;;;;0.77;0.60;;;;;;;;;;5072061;28;20016;-70
2022/04/08 13:02:13;;;;;;;1.08;0.50;;;;;;;;;;5072055;28;20021;-71
2022/04/08 13:04:40;;;;;;;0.30;0.30;;;;;;;;;;5071786;28;20032;-71
2022/04/08 13:07:07;;;;;;;0.32;0.32;;;;;;;;;;5071982;28;20039;-71
2022/04/08 13:09:34;;;;;;;0.93;0.63;;;;;;;;;;5069228;28;20425;-71
2022/04/08 13:12:00;;;;;;;0.30;0.30;;;;;;;;;;5071899;28;20021;-71
2022/04/08 13:14:26;;;;;;;0.40;0.40;;;;;;;;;;5070533;28;20444;-71
2022/04/08 13:16:52;;;;;;;0.20;0.20;;;;;;;;;;5071704;28;20028;-71
2022/04/08 13:19:18;;;;;;;1.13;0.20;;;;;;;;;;5070687;28;20100;-71
2022/04/08 13:21:44;;;;;;;0.40;0.40;;;;;;;;;;5070277;28;20020;-70
2022/04/08 13:24:10;;;;;;;0.38;0.38;;;;;;;;;;5070648;28;20102;-71
2022/04/08 13:26:37;;;;;;;0.30;0.30;;;;;;;;;;5070443;28;20473;-70
2022/04/08 13:29:03;;;;;;;0.40;0.40;;;;;;;;;;5071505;28;20041;-71
2022/04/08 13:31:29;;;;;;;0.45;0.40;;;;;;;;;;5071110;28;20047;-71
2022/04/08 13:33:55;;;;;;;0.30;0.30;;;;;;;;;;5071059;28;20028;-71
2022/04/08 13:36:21;;;;;;;0.28;0.28;;;;;;;;;;5071454;28;20485;-70
2022/04/08 13:38:47;;;;;;;0.30;0.30;;;;;;;;;;5070056;28;20020;-71
2022/04/08 13:41:13;;;;;;;0.30;0.30;;;;;;;;;;5087895;28;20024;-71
2022/04/08 13:43:39;;;;;;;0.40;0.40;;;;;;;;;;5090434;28;20141;-71
2022/04/08 13:46:05;;;;;;;0.55;0.55;;;;;;;;;;5091484;28;20093;-71
2022/04/08 13:48:31;;;;;;;0.30;0.30;;;;;;;;;;5090323;28;20479;-71
2022/04/08 13:50:57;;;;;;;0.43;0.40;;;;;;;;;;5091636;28;20024;-71
2022/04/08 13:53:23;;;;;;;0.28;0.28;;;;;;;;;;5090718;28;20138;-71
2022/04/08 13:55:49;;;;;;;0.40;0.40;;;;;;;;;;5073024;28;20107;-71
2022/04/08 13:58:17;;;;;;;0.35;0.35;;;;;;;;;;5070825;28;20024;-71
2022/04/08 14:00:43;;;;;;;0.25;0.25;;;;;;;;;;5070345;28;20067;-70
2022/04/08 14:03:09;;;;;;;0.30;0.30;;;;;;;;;;5073710;28;20069;-71
2022/04/08 14:05:35;;;;;;;0.80;0.52;;;;;;;;;;5090736;28;20020;-71
2022/04/08 14:08:01;;;;;;;0.82;0.40;;;;;;;;;;5091392;28;20024;-71
2022/04/08 14:10:27;;;;;;;0.43;0.30;;;;;;;;;;5077718;28;20437;-71
2022/04/08 14:12:53;;;;;;;0.52;0.52;;;;;;;;;;5070414;28;20434;-71
2022/04/08 14:15:19;;;;;;;0.82;0.57;;;;;;;;;;5070600;28;20024;-71
2022/04/08 14:17:46;;;;;;;1.17;0.50;;;;;;;;;;5070293;28;20436;-71
2022/04/08 14:20:12;;;;;;;1.63;0.50;;;;;;;;;;5079808;28;20028;-71
2022/04/08 14:22:38;;;;;;;0.38;0.38;;;;;;;;;;5085684;28;20476;-70
2022/04/08 14:25:05;;;;;;;0.70;0.35;;;;;;;;;;5089781;28;20369;-71
2022/04/08 14:27:31;;;;;;;2.90;0.47;;;;;;;;;;5090663;28;20036;-71
2022/04/08 14:29:58;;;;;;;1.65;0.60;;;;;;;;;;5090187;28;20043;-71
2022/04/08 14:32:23;;;;;;;1.17;0.28;;;;;;;;;;5089693;28;20016;-70
2022/04/08 14:34:49;;;;;;;0.30;0.30;;;;;;;;;;5090376;28;20104;-71
2022/04/08 14:37:15;;;;;;;0.20;0.20;;;;;;;;;;5089744;28;20032;-71
2022/04/08 14:39:42;;;;;;;0.20;0.20;;;;;;;;;;5089053;28;20032;-71
2022/04/08 14:42:08;;;;;;;0.20;0.20;;;;;;;;;;5089790;28;20084;-71
2022/04/08 14:44:34;;;;;;;2.15;0.82;;;;;;;;;;5090566;28;20488;-71
2022/04/08 14:46:59;;;;;;;0.30;0.30;;;;;;;;;;5077673;28;20029;-71
2022/04/08 14:49:26;;;;;;;0.35;0.35;;;;;;;;;;5082576;28;20028;-71
2022/04/08 14:51:52;;;;;;;0.28;0.20;;;;;;;;;;5089760;28;20055;-71